Time;durP1;ratioP1;P1;durP2;ratioP2;P2;SDS_P1;SDS_P2;PMS_P1;PMS_P2;Temp;Humidity;BMP_temperature;BMP_pressure;BME280_temperature;BME280_humidity;BME280_pressure;Samples;Min_cycle;Max_cycle;Signal;HPM_P1;HPM_P2
2021/06/14 00:01:57;;;;;;;6.93;2.92;;;;;;;;;;5052385;28;20021;-71
2021/06/14 00:04:23;;;;;;;7.35;2.92;;;;;;;;;;5052534;28;20394;-71
2021/06/14 00:06:49;;;;;;;6.30;3.20;;;;;;;;;;5052751;28;20032;-71
2021/06/14 00:09:20;;;;;;;3.88;2.92;;;;;;;;;;5052463;28;20124;-72
2021/06/14 00:11:46;;;;;;;5.93;3.08;;;;;;;;;;5055564;28;20021;-72
2021/06/14 00:14:12;;;;;;;5.45;3.20;;;;;;;;;;5056244;28;20032;-71
2021/06/14 00:16:38;;;;;;;3.67;2.78;;;;;;;;;;5056049;28;20393;-71
2021/06/14 00:19:07;;;;;;;4.93;2.97;;;;;;;;;;5056080;28;20060;-71
2021/06/14 00:21:34;;;;;;;5.47;2.75;;;;;;;;;;5056112;28;20021;-71
2021/06/14 00:24:00;;;;;;;5.95;2.95;;;;;;;;;;5055969;28;20033;-71
2021/06/14 00:26:27;;;;;;;4.10;2.90;;;;;;;;;;5055854;28;20078;-71
2021/06/14 00:28:53;;;;;;;9.25;2.78;;;;;;;;;;5056096;28;20056;-71
2021/06/14 00:31:19;;;;;;;5.53;2.83;;;;;;;;;;5055934;28;20013;-71
2021/06/14 00:33:45;;;;;;;5.10;2.90;;;;;;;;;;5055930;28;20036;-71
2021/06/14 00:36:12;;;;;;;6.53;2.92;;;;;;;;;;5055402;28;20032;-71
2021/06/14 00:38:38;;;;;;;5.32;2.80;;;;;;;;;;5055841;28;20023;-71
2021/06/14 00:41:05;;;;;;;6.47;2.80;;;;;;;;;;5055868;28;20080;-71
2021/06/14 00:43:32;;;;;;;4.28;2.80;;;;;;;;;;5055770;28;20389;-71
2021/06/14 00:45:58;;;;;;;6.07;2.92;;;;;;;;;;5055664;28;20025;-71
2021/06/14 00:48:24;;;;;;;6.28;2.67;;;;;;;;;;5055367;28;20543;-71
2021/06/14 00:50:55;;;;;;;5.00;2.40;;;;;;;;;;5055502;28;20027;-71
2021/06/14 00:53:23;;;;;;;5.15;2.40;;;;;;;;;;5055351;28;20055;-71
2021/06/14 00:55:49;;;;;;;12.90;2.88;;;;;;;;;;5054948;28;20053;-71
2021/06/14 00:58:15;;;;;;;6.18;2.70;;;;;;;;;;5053508;28;20118;-71
2021/06/14 01:00:41;;;;;;;7.65;2.55;;;;;;;;;;5052196;28;20057;-71
2021/06/14 01:03:08;;;;;;;7.72;2.50;;;;;;;;;;5052479;28;20033;-72
2021/06/14 01:05:38;;;;;;;6.20;2.08;;;;;;;;;;5054146;28;20025;-71
2021/06/14 01:08:04;;;;;;;9.68;2.60;;;;;;;;;;5055253;28;20082;-71
2021/06/14 01:10:31;;;;;;;7.47;2.35;;;;;;;;;;5055209;28;20029;-71
2021/06/14 01:12:57;;;;;;;6.00;2.40;;;;;;;;;;5054953;28;20029;-71
2021/06/14 01:15:23;;;;;;;9.27;2.80;;;;;;;;;;5055175;28;20021;-71
2021/06/14 01:17:58;;;;;;;6.22;2.22;;;;;;;;;;5053542;28;20036;-71
2021/06/14 01:20:30;;;;;;;8.38;2.58;;;;;;;;;;5054396;28;20028;-71
2021/06/14 01:23:15;;;;;;;7.57;2.42;;;;;;;;;;5054557;28;20454;-71
2021/06/14 01:25:41;;;;;;;8.70;2.33;;;;;;;;;;5054971;28;20033;-71
2021/06/14 01:28:08;;;;;;;6.80;2.00;;;;;;;;;;5054780;28;20043;-71
2021/06/14 01:30:35;;;;;;;6.60;2.20;;;;;;;;;;5054579;28;20029;-71
2021/06/14 01:33:02;;;;;;;6.55;2.13;;;;;;;;;;5054668;28;20031;-71
2021/06/14 01:35:48;;;;;;;4.30;2.20;;;;;;;;;;5054594;28;20017;-71
2021/06/14 01:38:15;;;;;;;5.50;2.30;;;;;;;;;;5054541;28;20033;-71
2021/06/14 01:40:42;;;;;;;6.93;2.22;;;;;;;;;;5054336;28;20435;-71
2021/06/14 01:43:10;;;;;;;8.65;2.40;;;;;;;;;;5054181;28;20490;-71
2021/06/14 01:45:40;;;;;;;7.22;2.92;;;;;;;;;;5054552;28;20032;-71
2021/06/14 01:48:06;;;;;;;7.53;2.55;;;;;;;;;;5054470;28;20032;-71
2021/06/14 01:50:33;;;;;;;4.90;2.20;;;;;;;;;;5054269;28;20021;-71
2021/06/14 01:52:59;;;;;;;4.40;1.98;;;;;;;;;;5054262;28;20029;-71
2021/06/14 01:55:26;;;;;;;4.80;2.33;;;;;;;;;;5054063;28;20061;-71
2021/06/14 01:57:52;;;;;;;6.82;2.30;;;;;;;;;;5053679;28;20090;-71
2021/06/14 02:00:20;;;;;;;10.68;2.55;;;;;;;;;;5054063;28;20063;-71
2021/06/14 02:02:46;;;;;;;8.60;2.60;;;;;;;;;;5054469;28;20596;-71
2021/06/14 02:05:13;;;;;;;7.72;2.13;;;;;;;;;;5054114;28;20477;-71
2021/06/14 02:07:41;;;;;;;6.50;2.00;;;;;;;;;;5054206;28;20060;-72
2021/06/14 02:10:08;;;;;;;6.03;2.45;;;;;;;;;;5053884;28;20025;-71
2021/06/14 02:12:38;;;;;;;9.55;2.28;;;;;;;;;;5053989;28;20021;-72
2021/06/14 02:15:04;;;;;;;5.53;2.30;;;;;;;;;;5052776;28;20028;-71
2021/06/14 02:17:31;;;;;;;8.38;2.30;;;;;;;;;;5053764;28;20037;-72
2021/06/14 02:19:58;;;;;;;9.38;2.33;;;;;;;;;;5052606;28;20021;-72
2021/06/14 02:22:24;;;;;;;10.70;2.30;;;;;;;;;;5053880;28;20033;-71
2021/06/14 02:24:50;;;;;;;9.07;2.42;;;;;;;;;;5053735;28;20116;-71
2021/06/14 02:27:16;;;;;;;4.13;1.83;;;;;;;;;;5052476;28;20055;-71
2021/06/14 02:29:42;;;;;;;6.30;1.95;;;;;;;;;;5053407;28;20024;-71
2021/06/14 02:32:09;;;;;;;6.10;2.00;;;;;;;;;;5053780;28;20029;-71
2021/06/14 02:34:36;;;;;;;5.47;2.65;;;;;;;;;;5052767;28;20055;-71
2021/06/14 02:37:03;;;;;;;6.97;2.25;;;;;;;;;;5053723;28;20028;-71
2021/06/14 02:39:30;;;;;;;5.43;1.80;;;;;;;;;;5053642;28;20056;-71
2021/06/14 02:41:56;;;;;;;9.55;2.13;;;;;;;;;;5053709;28;20036;-71
2021/06/14 02:44:22;;;;;;;4.82;2.00;;;;;;;;;;5053468;28;20021;-71
2021/06/14 02:46:49;;;;;;;7.75;2.10;;;;;;;;;;5053302;28;20028;-71
2021/06/14 02:49:16;;;;;;;5.25;2.47;;;;;;;;;;5053313;28;20024;-71
2021/06/14 02:51:42;;;;;;;8.85;2.60;;;;;;;;;;5053469;28;20047;-71
2021/06/14 02:54:10;;;;;;;3.47;2.10;;;;;;;;;;5052890;28;20031;-71
2021/06/14 02:56:37;;;;;;;7.95;2.00;;;;;;;;;;5053289;28;20529;-71
2021/06/14 02:59:07;;;;;;;6.88;2.15;;;;;;;;;;5053298;28;20060;-71
2021/06/14 03:01:34;;;;;;;7.30;2.38;;;;;;;;;;5053490;28;20025;-71
2021/06/14 03:04:02;;;;;;;6.50;2.03;;;;;;;;;;5053263;28;20028;-71
2021/06/14 03:06:28;;;;;;;7.68;2.17;;;;;;;;;;5053112;28;20037;-72
2021/06/14 03:08:55;;;;;;;6.97;1.95;;;;;;;;;;5053094;28;20070;-72
2021/06/14 03:11:25;;;;;;;5.20;1.88;;;;;;;;;;5053421;28;20033;-71
2021/06/14 03:13:51;;;;;;;4.97;2.10;;;;;;;;;;5053054;28;20507;-71
2021/06/14 03:16:18;;;;;;;8.60;2.85;;;;;;;;;;5052740;28;20033;-71
2021/06/14 03:18:44;;;;;;;10.93;2.47;;;;;;;;;;5052695;28;20075;-71
2021/06/14 03:21:11;;;;;;;5.53;1.98;;;;;;;;;;5052991;28;20474;-72
2021/06/14 03:23:37;;;;;;;6.68;2.00;;;;;;;;;;5053009;28;20029;-71
2021/06/14 03:26:04;;;;;;;6.53;2.05;;;;;;;;;;5053114;28;20032;-71
2021/06/14 03:28:32;;;;;;;4.28;2.00;;;;;;;;;;5053070;28;20060;-71
2021/06/14 03:30:58;;;;;;;7.43;2.30;;;;;;;;;;5053045;28;20099;-72
2021/06/14 03:33:24;;;;;;;5.00;2.00;;;;;;;;;;5053155;28;20100;-71
2021/06/14 03:35:52;;;;;;;6.18;1.95;;;;;;;;;;5051466;28;20033;-71
2021/06/14 03:38:18;;;;;;;8.15;2.22;;;;;;;;;;5052664;28;20029;-71
2021/06/14 03:40:44;;;;;;;6.60;1.77;;;;;;;;;;5052512;28;20112;-72
2021/06/14 03:43:11;;;;;;;12.85;2.80;;;;;;;;;;5052585;28;20072;-71
2021/06/14 03:45:37;;;;;;;6.82;2.20;;;;;;;;;;5054351;28;20025;-71
2021/06/14 03:48:03;;;;;;;8.95;2.47;;;;;;;;;;5056801;28;20027;-71
2021/06/14 03:50:29;;;;;;;6.53;2.10;;;;;;;;;;5056648;28;20397;-71
2021/06/14 03:52:55;;;;;;;11.75;2.08;;;;;;;;;;5056678;28;20028;-75
2021/06/14 03:55:21;;;;;;;2.97;1.85;;;;;;;;;;5056216;28;20056;-71
2021/06/14 03:57:48;;;;;;;7.90;2.08;;;;;;;;;;5056360;28;20093;-71
2021/06/14 04:00:14;;;;;;;13.13;2.10;;;;;;;;;;5056532;28;20036;-71
2021/06/14 04:02:41;;;;;;;6.93;2.10;;;;;;;;;;5056338;28;20362;-72
2021/06/14 04:05:08;;;;;;;5.97;2.30;;;;;;;;;;5056451;28;20025;-71
2021/06/14 04:07:34;;;;;;;3.53;1.65;;;;;;;;;;5056409;28;20025;-71
2021/06/14 04:10:00;;;;;;;10.00;2.05;;;;;;;;;;5056230;28;20033;-71
2021/06/14 04:12:27;;;;;;;8.35;2.10;;;;;;;;;;5056305;28;20083;-71
2021/06/14 04:14:53;;;;;;;8.25;2.47;;;;;;;;;;5056350;28;20119;-71
2021/06/14 04:17:19;;;;;;;9.27;1.83;;;;;;;;;;5056144;28;20037;-71
2021/06/14 04:19:45;;;;;;;8.13;2.10;;;;;;;;;;5054812;28;20502;-71
2021/06/14 04:22:11;;;;;;;14.48;2.08;;;;;;;;;;5056207;28;20466;-71
2021/06/14 04:24:37;;;;;;;9.57;2.05;;;;;;;;;;5055792;28;20142;-71
2021/06/14 04:27:04;;;;;;;6.65;2.35;;;;;;;;;;5055899;28;20032;-71
2021/06/14 04:29:30;;;;;;;14.75;2.17;;;;;;;;;;5055983;28;20025;-71
2021/06/14 04:31:56;;;;;;;10.15;2.10;;;;;;;;;;5055849;28;20029;-71
2021/06/14 04:34:22;;;;;;;7.90;2.03;;;;;;;;;;5055995;28;20033;-71
2021/06/14 04:36:48;;;;;;;5.65;1.90;;;;;;;;;;5055646;28;20035;-71
2021/06/14 04:39:15;;;;;;;3.95;1.92;;;;;;;;;;5055801;28;20437;-71
2021/06/14 04:41:41;;;;;;;7.85;1.70;;;;;;;;;;5055921;28;20088;-72
2021/06/14 04:44:07;;;;;;;6.05;2.42;;;;;;;;;;5056089;28;20477;-71
2021/06/14 04:46:33;;;;;;;11.65;1.90;;;;;;;;;;5055487;28;20129;-71
2021/06/14 04:48:59;;;;;;;10.57;2.10;;;;;;;;;;5055484;28;20027;-71
2021/06/14 04:51:25;;;;;;;5.10;2.03;;;;;;;;;;5055649;28;20393;-71
2021/06/14 04:53:51;;;;;;;8.68;1.98;;;;;;;;;;5055721;28;20466;-71
2021/06/14 04:56:18;;;;;;;8.10;2.42;;;;;;;;;;5054996;28;20059;-71
2021/06/14 04:58:44;;;;;;;7.05;1.98;;;;;;;;;;5054862;28;20082;-71
2021/06/14 05:01:10;;;;;;;11.98;2.50;;;;;;;;;;5055193;28;20021;-71
2021/06/14 05:03:36;;;;;;;4.03;1.75;;;;;;;;;;5053799;28;20116;-71
2021/06/14 05:06:02;;;;;;;6.03;1.88;;;;;;;;;;5055369;28;20029;-71
2021/06/14 05:08:28;;;;;;;11.90;1.98;;;;;;;;;;5054167;28;20025;-71
2021/06/14 05:10:54;;;;;;;9.38;2.30;;;;;;;;;;5055534;28;20379;-71
2021/06/14 05:13:20;;;;;;;8.38;2.15;;;;;;;;;;5055241;28;20021;-71
2021/06/14 05:15:46;;;;;;;8.77;1.92;;;;;;;;;;5054694;28;20507;-71
2021/06/14 05:18:13;;;;;;;10.13;2.53;;;;;;;;;;5054922;28;20489;-71
2021/06/14 05:20:39;;;;;;;5.47;2.08;;;;;;;;;;5054779;28;20029;-71
2021/06/14 05:23:05;;;;;;;8.85;2.15;;;;;;;;;;5055480;28;20091;-72
2021/06/14 05:25:32;;;;;;;9.30;2.00;;;;;;;;;;5054997;28;20057;-71
2021/06/14 05:27:58;;;;;;;6.43;2.20;;;;;;;;;;5055096;28;20025;-71
2021/06/14 05:30:25;;;;;;;6.88;1.98;;;;;;;;;;5054878;28;20025;-71
2021/06/14 05:32:52;;;;;;;7.10;2.08;;;;;;;;;;5054864;28;20036;-71
2021/06/14 05:35:18;;;;;;;8.50;2.20;;;;;;;;;;5054619;28;20017;-71
2021/06/14 05:37:44;;;;;;;7.07;2.03;;;;;;;;;;5054335;28;20029;-71
2021/06/14 05:40:11;;;;;;;10.05;2.20;;;;;;;;;;5054585;28;20024;-71
2021/06/14 05:42:37;;;;;;;10.73;2.25;;;;;;;;;;5054704;28;20024;-71
2021/06/14 05:45:06;;;;;;;8.02;2.65;;;;;;;;;;5054437;28;20368;-71
2021/06/14 05:47:32;;;;;;;10.85;2.53;;;;;;;;;;5054564;28;20052;-71
2021/06/14 05:49:58;;;;;;;8.13;2.13;;;;;;;;;;5054462;28;20027;-71
2021/06/14 05:52:24;;;;;;;9.52;2.28;;;;;;;;;;5054572;28;20111;-71
2021/06/14 05:54:51;;;;;;;7.60;2.42;;;;;;;;;;5054254;28;20094;-72
2021/06/14 05:57:17;;;;;;;6.03;1.95;;;;;;;;;;5054136;28;20040;-71
2021/06/14 05:59:43;;;;;;;9.02;2.30;;;;;;;;;;5054263;28;20385;-71
2021/06/14 06:02:09;;;;;;;4.63;1.90;;;;;;;;;;5054322;28;20029;-72
2021/06/14 06:04:35;;;;;;;12.90;2.35;;;;;;;;;;5054096;28;20021;-71
2021/06/14 06:07:01;;;;;;;7.03;1.80;;;;;;;;;;5054018;28;20029;-71
2021/06/14 06:09:27;;;;;;;7.80;2.28;;;;;;;;;;5053905;28;20432;-71
2021/06/14 06:11:53;;;;;;;3.92;1.75;;;;;;;;;;5053998;28;20421;-71
2021/06/14 06:14:19;;;;;;;7.15;1.98;;;;;;;;;;5054054;28;20351;-71
2021/06/14 06:16:45;;;;;;;8.50;2.08;;;;;;;;;;5053665;28;20492;-71
2021/06/14 06:19:11;;;;;;;7.35;2.05;;;;;;;;;;5053999;28;20035;-72
2021/06/14 06:21:38;;;;;;;6.00;1.90;;;;;;;;;;5052477;28;20049;-71
2021/06/14 06:24:04;;;;;;;9.13;2.20;;;;;;;;;;5058122;28;20493;-74
2021/06/14 06:26:31;;;;;;;9.88;2.95;;;;;;;;;;5057957;28;20032;-71
2021/06/14 06:28:57;;;;;;;6.95;2.10;;;;;;;;;;5060334;28;20031;-71
2021/06/14 06:31:23;;;;;;;10.98;2.38;;;;;;;;;;5062890;28;20052;-71
2021/06/14 06:33:50;;;;;;;6.32;2.47;;;;;;;;;;5060423;28;20013;-71
2021/06/14 06:36:16;;;;;;;9.70;2.80;;;;;;;;;;5061624;28;20020;-71
2021/06/14 06:38:42;;;;;;;14.13;3.45;;;;;;;;;;5062224;28;20036;-71
2021/06/14 06:41:08;;;;;;;7.95;2.60;;;;;;;;;;5060535;28;20087;-70
2021/06/14 06:43:37;;;;;;;4.40;1.80;;;;;;;;;;5062281;28;20031;-71
2021/06/14 06:46:04;;;;;;;3.88;1.92;;;;;;;;;;5062747;28;20032;-71
2021/06/14 06:48:30;;;;;;;6.95;2.00;;;;;;;;;;5060876;28;20393;-71
2021/06/14 06:51:00;;;;;;;5.93;2.03;;;;;;;;;;5061419;28;20051;-71
2021/06/14 06:53:26;;;;;;;8.23;2.22;;;;;;;;;;5061355;28;20380;-71
2021/06/14 06:55:53;;;;;;;10.55;2.58;;;;;;;;;;5061820;28;20053;-71
2021/06/14 06:58:19;;;;;;;6.43;2.13;;;;;;;;;;5054262;28;20110;-71
2021/06/14 07:00:49;;;;;;;7.55;2.20;;;;;;;;;;5051782;28;20029;-71
2021/06/14 07:03:18;;;;;;;6.18;2.30;;;;;;;;;;5052001;28;20036;-72
2021/06/14 07:05:46;;;;;;;6.78;2.33;;;;;;;;;;5053167;28;20025;-70
2021/06/14 07:08:12;;;;;;;7.93;2.50;;;;;;;;;;5053068;28;20497;-71
2021/06/14 07:10:39;;;;;;;6.18;2.10;;;;;;;;;;5051278;28;20028;-71
2021/06/14 07:13:06;;;;;;;8.00;2.35;;;;;;;;;;5051225;28;20024;-68
2021/06/14 07:15:32;;;;;;;11.00;2.65;;;;;;;;;;5051235;28;20028;-69
2021/06/14 07:17:58;;;;;;;6.25;2.78;;;;;;;;;;5051310;28;20103;-69
2021/06/14 07:20:24;;;;;;;10.25;2.50;;;;;;;;;;5050926;28;20036;-68
2021/06/14 07:22:50;;;;;;;7.15;2.40;;;;;;;;;;5051420;28;20031;-69
2021/06/14 07:25:17;;;;;;;8.50;2.72;;;;;;;;;;5052491;28;20036;-69
2021/06/14 07:27:43;;;;;;;8.20;2.80;;;;;;;;;;5051313;28;20017;-69
2021/06/14 07:30:11;;;;;;;7.22;2.20;;;26.10;50.00;;;;;;5051615;28;20028;-69
2021/06/14 07:32:38;;;;;;;6.35;2.63;;;22.90;50.10;;;;;;5050909;28;20508;-68
2021/06/14 07:35:04;;;;;;;7.55;2.42;;;22.80;51.20;;;;;;5050359;28;20147;-68
2021/06/14 07:37:30;;;;;;;6.32;2.53;;;;;;;;;;5050721;28;20037;-68
2021/06/14 07:39:56;;;;;;;6.70;2.50;;;;;;;;;;5063490;28;20059;-68
2021/06/14 07:42:23;;;;;;;9.13;2.30;;;;;;;;;;5071492;28;20028;-68
2021/06/14 07:44:49;;;;;;;7.95;2.60;;;;;;;;;;5070801;28;20510;-68
2021/06/14 07:47:15;;;;;;;8.70;2.00;;;;;;;;;;5070366;28;20400;-68
2021/06/14 07:49:42;;;;;;;5.15;2.80;;;;;;;;;;5070332;28;20021;-69
2021/06/14 07:52:09;;;;;;;7.82;2.65;;;;;;;;;;5070753;28;20025;-69
2021/06/14 07:54:35;;;;;;;9.10;2.40;;;22.90;51.70;;;;;;5071855;28;20083;-69
2021/06/14 07:57:01;;;;;;;9.45;2.70;;;;;;;;;;5072263;28;20031;-68
2021/06/14 07:59:27;;;;;;;4.45;2.25;;;;;;;;;;5070941;28;20115;-69
2021/06/14 08:01:53;;;;;;;8.73;2.60;;;;;;;;;;5071264;28;20027;-68
2021/06/14 08:04:19;;;;;;;4.57;2.40;;;;;;;;;;5072125;28;20075;-68
2021/06/14 08:06:45;;;;;;;5.47;2.40;;;;;;;;;;5071535;28;20436;-68
2021/06/14 08:09:14;;;;;;;5.20;2.45;;;;;;;;;;5072481;28;20029;-69
2021/06/14 08:11:44;;;;;;;6.05;2.40;;;;;;;;;;5072590;28;20044;-68
2021/06/14 08:14:10;;;;;;;5.68;2.35;;;;;;;;;;5071691;28;20059;-68
2021/06/14 08:16:42;;;;;;;8.13;2.70;;;;;;;;;;5072316;28;20029;-68
2021/06/14 08:19:16;;;;;;;9.07;2.30;;;;;;;;;;5072443;28;20024;-67
2021/06/14 08:27:12;;;;;;;9.63;2.40;;;;;;;;;;5072303;28;20040;-68
2021/06/14 08:29:38;;;;;;;11.95;2.70;;;;;;;;;;5071557;28;20037;-69
2021/06/14 08:32:04;;;;;;;4.15;2.78;;;;;;;;;;5073024;28;20017;-68
2021/06/14 08:34:30;;;;;;;8.40;2.60;;;;;;;;;;5075660;28;20029;-67
2021/06/14 08:36:56;;;;;;;16.45;3.42;;;;;;;;;;5074760;28;20033;-67
2021/06/14 08:39:22;;;;;;;9.25;2.97;;;;;;;;;;5075691;28;20056;-67
2021/06/14 08:41:49;;;;;;;8.57;2.70;;;;;;;;;;5076020;28;20043;-67
2021/06/14 08:44:15;;;;;;;13.65;2.60;;;;;;;;;;5075779;28;20024;-67
2021/06/14 08:46:41;;;;;;;4.53;2.40;;;;;;;;;;5076056;28;20067;-67
2021/06/14 08:49:07;;;;;;;5.32;2.80;;;;;;;;;;5075863;28;20028;-67
2021/06/14 08:51:33;;;;;;;9.75;3.08;;;;;;;;;;5075451;28;20393;-67
2021/06/14 08:53:59;;;;;;;9.23;2.60;;;;;;;;;;5075571;28;20457;-67
2021/06/14 08:56:26;;;;;;;7.80;2.60;;;;;;;;;;5075112;28;20057;-67
2021/06/14 08:58:53;;;;;;;12.65;3.15;;;;;;;;;;5075764;28;20489;-68
2021/06/14 09:01:20;;;;;;;11.13;2.55;;;;;;;;;;5075712;28;20029;-67
2021/06/14 09:03:46;;;;;;;11.57;2.60;;;;;;;;;;5075445;28;20032;-67
2021/06/14 09:06:12;;;;;;;9.18;2.83;;;;;;;;;;5075188;28;20146;-67
2021/06/14 09:08:38;;;;;;;5.85;2.10;;;;;;;;;;5075112;28;20020;-67
2021/06/14 09:11:04;;;;;;;6.57;2.58;;;;;;;;;;5073125;28;20029;-68
2021/06/14 09:13:33;;;;;;;8.07;2.40;;;;;;;;;;5074706;28;20024;-69
2021/06/14 09:16:06;;;;;;;7.40;2.80;;;;;;;;;;5075220;28;20040;-67
2021/06/14 09:18:32;;;;;;;7.90;2.60;;;;;;;;;;5073519;28;20033;-68
2021/06/14 09:21:08;;;;;;;6.28;2.53;;;;;;;;;;5073594;28;20504;-67
2021/06/14 09:23:42;;;;;;;5.30;2.75;;;;;;;;;;5074960;28;20031;-67
2021/06/14 09:26:09;;;;;;;8.57;2.55;;;;;;;;;;5073839;28;20111;-67
2021/06/14 09:28:35;;;;;;;11.82;2.47;;;;;;;;;;5072824;28;20376;-67
2021/06/14 09:31:14;;;;;;;9.50;3.10;;;;;;;;;;5073378;28;20025;-68
2021/06/14 09:33:43;;;;;;;7.38;3.28;;;;;;;;;;5074887;28;20032;-67
2021/06/14 09:36:09;;;;;;;6.32;3.00;;;;;;;;;;5074808;28;20108;-67
2021/06/14 09:38:35;;;;;;;10.20;2.90;;;;;;;;;;5074597;28;20032;-68
2021/06/14 09:41:08;;;;;;;8.25;3.05;;;;;;;;;;5074930;28;20021;-67
2021/06/14 09:43:36;;;;;;;5.43;2.83;;;;;;;;;;5073181;28;20060;-67
2021/06/14 09:46:04;;;;;;;12.63;3.63;;;;;;;;;;5074454;28;20017;-67
2021/06/14 09:48:31;;;;;;;6.25;2.67;;;;;;;;;;5074616;28;20020;-68
2021/06/14 09:51:04;;;;;;;6.90;2.85;;;;;;;;;;5074545;28;20024;-67
2021/06/14 09:53:39;;;;;;;5.72;2.60;;;;;;;;;;5074521;28;20469;-68
2021/06/14 09:56:16;;;;;;;8.93;2.67;;;;;;;;;;5074032;28;20055;-68
2021/06/14 09:58:42;;;;;;;6.75;2.53;;;;;;;;;;5073848;28;20107;-68
2021/06/14 10:01:08;;;;;;;8.90;2.63;;;;;;;;;;5073913;28;20029;-68
2021/06/14 10:03:41;;;;;;;8.13;2.63;;;;;;;;;;5074140;28;20020;-67
2021/06/14 10:06:07;;;;;;;7.13;2.47;;;;;;;;;;5074002;28;20078;-67
2021/06/14 10:08:34;;;;;;;4.63;2.22;;;;;;;;;;5073983;28;20032;-68
2021/06/14 10:11:03;;;;;;;8.48;3.03;;;;;;;;;;5074116;28;20060;-68
2021/06/14 10:13:30;;;;;;;8.88;2.80;;;;;;;;;;5073914;28;20036;-69
2021/06/14 10:16:04;;;;;;;8.48;2.90;;;;;;;;;;5073788;28;20043;-67
2021/06/14 10:18:31;;;;;;;5.55;3.10;;;;;;;;;;5073903;28;20064;-67
2021/06/14 10:20:57;;;;;;;6.45;2.67;;;;;;;;;;5073839;28;20104;-67
2021/06/14 10:23:23;;;;;;;7.78;2.65;;;;;;;;;;5073906;28;20036;-67
2021/06/14 10:25:49;;;;;;;7.03;2.67;;;;;;;;;;5073826;28;20028;-67
2021/06/14 10:28:16;;;;;;;5.57;2.88;;;;;;;;;;5073861;28;20036;-67
2021/06/14 10:30:42;;;;;;;8.38;3.05;;;;;;;;;;5073669;28;20028;-67
2021/06/14 10:33:08;;;;;;;5.07;3.03;;;;;;;;;;5073386;28;20028;-68
2021/06/14 10:35:35;;;;;;;6.03;2.85;;;;;;;;;;5073717;28;20015;-68
2021/06/14 10:38:03;;;;;;;5.25;3.05;;;;;;;;;;5073492;28;20036;-68
2021/06/14 10:40:29;;;;;;;7.10;2.90;;;;;;;;;;5073445;28;20401;-67
2021/06/14 10:42:55;;;;;;;8.15;3.05;;;;;;;;;;5073235;28;20181;-67
2021/06/14 10:45:26;;;;;;;5.60;3.08;;;;;;;;;;5073206;28;20470;-67
2021/06/14 10:47:52;;;;;;;5.75;2.78;;;;;;;;;;5073142;28;20500;-67
2021/06/14 10:50:22;;;;;;;4.68;2.58;;;;;;;;;;5073280;28;20043;-67
2021/06/14 10:52:48;;;;;;;7.82;2.70;;;;;;;;;;5073354;28;20538;-67
2021/06/14 10:55:16;;;;;;;8.50;3.00;;;;;;;;;;5071685;28;20049;-67
2021/06/14 10:57:42;;;;;;;6.13;2.50;;;;;;;;;;5072746;28;20469;-68
2021/06/14 11:00:27;;;;;;;8.52;3.63;;;;;;;;;;5072893;28;20070;-68
2021/06/14 11:02:54;;;;;;;6.63;2.67;;;;;;;;;;5072882;28;20030;-68
2021/06/14 11:05:31;;;;;;;6.70;2.90;;;;;;;;;;5073078;28;20076;-68
2021/06/14 11:07:57;;;;;;;7.05;2.80;;;;;;;;;;5073172;28;20108;-68
2021/06/14 11:10:27;;;;;;;8.80;2.70;;;;;;;;;;5066342;28;20066;-68
2021/06/14 11:13:05;;;;;;;6.47;2.78;;;;;;;;;;5069333;28;20120;-68
2021/06/14 11:15:33;;;;;;;6.00;2.88;;;;;;;;;;5072980;28;20104;-68
2021/06/14 11:18:05;;;;;;;8.35;2.70;;;;;;;;;;5072752;28;20029;-68
2021/06/14 11:20:33;;;;;;;9.52;2.88;;;;;;;;;;5072752;28;20029;-68
2021/06/14 11:22:59;;;;;;;6.13;3.03;;;;;;;;;;5072751;28;20519;-68
2021/06/14 11:25:30;;;;;;;7.13;3.05;;;;;;;;;;5069700;28;20442;-68
2021/06/14 11:28:01;;;;;;;7.72;3.20;;;;;;;;;;5069990;28;20024;-68
2021/06/14 11:30:27;;;;;;;8.15;2.90;;;;;;;;;;5070695;28;20029;-68
2021/06/14 11:32:53;;;;;;;7.90;2.60;;;;;;;;;;5071243;28;20032;-67
2021/06/14 11:35:20;;;;;;;5.43;2.95;;;;;;;;;;5072920;28;20030;-68
2021/06/14 11:37:47;;;;;;;13.20;3.55;;;;;;;;;;5072579;28;20117;-67
2021/06/14 11:40:15;;;;;;;5.85;3.28;;;;;;;;;;5072724;28;20060;-67
2021/06/14 11:42:45;;;;;;;8.07;3.00;;;;;;;;;;5072599;28;20029;-68
2021/06/14 11:45:23;;;;;;;4.45;2.92;;;;;;;;;;5072276;28;20024;-68
2021/06/14 11:47:50;;;;;;;5.13;3.05;;;;;;;;;;5072472;28;20032;-69
2021/06/14 11:50:21;;;;;;;6.07;2.90;;;;;;;;;;5071706;28;20488;-67
2021/06/14 11:52:56;;;;;;;5.70;3.00;;;;;;;;;;5072692;28;20025;-67
2021/06/14 11:55:22;;;;;;;7.63;3.08;;;;;;;;;;5072454;28;20097;-68
2021/06/14 11:57:54;;;;;;;9.35;3.28;;;;;;;;;;5072725;28;20121;-67
2021/06/14 12:00:44;;;;;;;5.93;2.97;;;;;;;;;;5072101;28;20027;-67
2021/06/14 12:03:19;;;;;;;5.65;3.33;;;;;;;;;;5069297;28;20116;-67
2021/06/14 12:05:45;;;;;;;8.40;3.33;;;;;;;;;;5072605;28;20025;-67
2021/06/14 12:08:16;;;;;;;8.15;2.95;;;;;;;;;;5076320;28;20032;-67
2021/06/14 12:10:42;;;;;;;6.05;3.03;;;;;;;;;;5076116;28;20025;-67
2021/06/14 12:13:10;;;;;;;8.27;3.20;;;;;;;;;;5076082;28;20089;-67
2021/06/14 12:15:36;;;;;;;6.85;3.40;;;;;;;;;;5076268;28;20032;-67
2021/06/14 12:18:02;;;;;;;5.25;2.90;;;;;;;;;;5076102;28;20028;-67
2021/06/14 12:20:32;;;;;;;5.35;3.30;;;;;;;;;;5074202;28;20028;-67
2021/06/14 12:23:09;;;;;;;5.07;3.35;;;;;;;;;;5075604;28;20020;-68
2021/06/14 12:25:37;;;;;;;6.88;2.72;;;;;;;;;;5075683;28;20016;-67
2021/06/14 12:28:05;;;;;;;7.80;2.83;;;;;;;;;;5061628;28;20096;-70
2021/06/14 12:30:32;;;;;;;9.73;2.95;;;;;;;;;;5055449;28;20029;-69
2021/06/14 12:32:58;;;;;;;5.47;2.92;;;;;;;;;;5055722;28;20053;-67
2021/06/14 12:35:25;;;;;;;6.30;3.10;;;;;;;;;;5059487;28;20047;-69
2021/06/14 12:37:51;;;;;;;6.75;2.70;;;;;;;;;;5075149;28;20043;-67
2021/06/14 12:40:22;;;;;;;6.63;3.05;;;;;;;;;;5075136;28;20534;-67
2021/06/14 12:43:01;;;;;;;4.68;3.15;;;;;;;;;;5075312;28;20027;-67
2021/06/14 12:45:28;;;;;;;5.93;2.80;;;;;;;;;;5075673;28;20155;-67
2021/06/14 12:47:55;;;;;;;5.85;3.55;;;;;;;;;;5075006;28;20362;-67
2021/06/14 12:50:24;;;;;;;6.68;3.42;;;;;;;;;;5075155;28;20036;-68
2021/06/14 12:52:51;;;;;;;7.88;3.40;;;;;;;;;;5074837;28;20028;-68
2021/06/14 12:55:21;;;;;;;7.20;3.22;;;;;;;;;;5074626;28;20051;-69
2021/06/14 12:57:48;;;;;;;8.40;3.10;;;;;;;;;;5074941;28;20040;-68
2021/06/14 13:00:16;;;;;;;9.13;2.95;;;;;;;;;;5075099;28;20048;-69
2021/06/14 13:02:42;;;;;;;4.82;2.60;;;;;;;;;;5073840;28;20397;-67
2021/06/14 13:05:17;;;;;;;10.02;2.80;;;;;;;;;;5074631;28;20024;-68
2021/06/14 13:07:53;;;;;;;5.03;2.70;;;;;;;;;;5075003;28;20115;-67
2021/06/14 13:10:20;;;;;;;6.07;2.85;;;;;;;;;;5074486;28;20033;-68
2021/06/14 13:12:46;;;;;;;11.73;3.17;;;;;;;;;;5074660;28;20025;-68
2021/06/14 13:15:16;;;;;;;8.80;3.17;;;;;;;;;;5073505;28;20021;-69
2021/06/14 13:17:50;;;;;;;5.25;3.00;;;;;;;;;;5073713;28;20032;-69
2021/06/14 13:20:20;;;;;;;7.35;3.50;;;;;;;;;;5073868;28;20480;-69
2021/06/14 13:22:46;;;;;;;7.80;2.90;;;;;;;;;;5074084;28;20067;-68
2021/06/14 13:25:13;;;;;;;5.22;3.13;;;;;;;;;;5073608;28;20021;-68
2021/06/14 13:27:49;;;;;;;6.22;3.10;;;;;;;;;;5074769;28;20025;-68
2021/06/14 13:30:15;;;;;;;7.60;3.33;;;;;;;;;;5074400;28;20032;-68
2021/06/14 13:33:15;;;;;;;4.43;2.80;;;;;;;;;;5074381;28;20024;-68
2021/06/14 13:35:33;;;;;;;;;;;;;;;;;;5071860;28;20034;-68
2021/06/14 13:37:59;;;;;;;4.15;2.60;;;;;;;;;;5072664;28;20003;-68
2021/06/14 13:40:28;;;;;;;9.38;2.70;;;;;;;;;;5074029;28;20028;-68
2021/06/14 13:42:58;;;;;;;9.40;2.97;;;;;;;;;;5073912;28;20445;-68
2021/06/14 13:45:35;;;;;;;5.80;2.58;;;;;;;;;;5073878;28;20083;-67
2021/06/14 13:48:05;;;;;;;3.13;2.58;;;;;;;;;;5074417;28;20028;-69
2021/06/14 13:50:32;;;;;;;8.63;2.88;;;;;;;;;;5072765;28;20021;-68
2021/06/14 13:53:08;;;;;;;5.60;2.67;;;;;;;;;;5073577;28;20376;-68
2021/06/14 13:55:34;;;;;;;4.57;2.40;;;;;;;;;;5073349;28;20048;-68
2021/06/14 13:58:00;;;;;;;4.03;2.70;;;;;;;;;;5072947;28;20040;-68
2021/06/14 14:00:27;;;;;;;8.48;2.55;;;;;;;;;;5073766;28;20028;-67
2021/06/14 14:02:55;;;;;;;5.30;2.58;;;;;;;;;;5073391;28;20516;-67
2021/06/14 14:05:29;;;;;;;4.32;2.50;;;;;;;;;;5073830;28;20056;-69
2021/06/14 14:07:56;;;;;;;7.65;2.67;;;;;;;;;;5073252;28;20129;-68
2021/06/14 14:10:22;;;;;;;3.08;2.40;;;;;;;;;;5073636;28;20147;-70
2021/06/14 14:12:48;;;;;;;6.75;2.35;;;;;;;;;;5071823;28;20032;-69
2021/06/14 14:15:15;;;;;;;5.63;2.65;;;;;;;;;;5071673;28;20485;-70
2021/06/14 14:17:41;;;;;;;4.43;2.30;;;;;;;;;;5072308;28;20037;-68
2021/06/14 14:20:08;;;;;;;8.70;2.30;;;;;;;;;;5072883;28;20030;-71
2021/06/14 14:22:34;;;;;;;7.68;3.15;;;;;;;;;;5073104;28;20020;-69
2021/06/14 14:25:00;;;;;;;5.40;2.70;;;;;;;;;;5071335;28;20039;-69
2021/06/14 14:27:28;;;;;;;3.05;2.35;;;;;;;;;;5070838;28;20481;-70
2021/06/14 14:29:57;;;;;;;3.25;2.10;;;;;;;;;;5070663;28;20024;-70
2021/06/14 14:32:23;;;;;;;8.95;3.17;;;;;;;;;;5072772;28;20100;-68
2021/06/14 14:34:50;;;;;;;5.90;2.88;;;;;;;;;;5073096;28;20028;-69
2021/06/14 14:37:25;;;;;;;10.38;2.97;;;;;;;;;;5072860;28;20085;-69
2021/06/14 14:40:00;;;;;;;11.05;2.88;;;;;;;;;;5072489;28;20035;-69
2021/06/14 14:42:26;;;;;;;6.03;3.03;;;;;;;;;;5071938;28;20380;-68
2021/06/14 14:44:52;;;;;;;7.25;3.45;;;;;;;;;;5073452;28;20078;-70
2021/06/14 14:47:19;;;;;;;5.40;2.83;;;;;;;;;;5072080;28;20157;-69
2021/06/14 14:49:45;;;;;;;5.38;2.90;;;;;;;;;;5072923;28;20020;-70